sensor_id;sensor_type;location;lat;lon;timestamp;P1;durP1;ratioP1;P2;durP2;ratioP2
63784;SDS011;49927;48.146;11.420;2022-09-01T00:01:56;41.28;;;26.00;;
63784;SDS011;49927;48.146;11.420;2022-09-01T00:04:22;42.88;;;26.40;;
63784;SDS011;49927;48.146;11.420;2022-09-01T00:06:48;38.60;;;26.17;;
63784;SDS011;49927;48.146;11.420;2022-09-01T00:09:15;39.53;;;25.73;;
63784;SDS011;49927;48.146;11.420;2022-09-01T00:11:45;47.80;;;28.45;;
63784;SDS011;49927;48.146;11.420;2022-09-01T00:14:13;41.25;;;26.88;;
63784;SDS011;49927;48.146;11.420;2022-09-01T00:16:38;50.78;;;30.45;;
63784;SDS011;49927;48.146;11.420;2022-09-01T00:19:04;42.53;;;27.27;;
63784;SDS011;49927;48.146;11.420;2022-09-01T00:21:32;44.53;;;27.75;;
63784;SDS011;49927;48.146;11.420;2022-09-01T00:23:59;43.70;;;28.80;;
63784;SDS011;49927;48.146;11.420;2022-09-01T00:26:25;51.05;;;29.60;;
63784;SDS011;49927;48.146;11.420;2022-09-01T00:28:53;44.42;;;28.92;;
63784;SDS011;49927;48.146;11.420;2022-09-01T00:31:18;46.05;;;28.58;;
63784;SDS011;49927;48.146;11.420;2022-09-01T00:33:44;54.20;;;30.02;;
63784;SDS011;49927;48.146;11.420;2022-09-01T00:36:10;48.55;;;29.00;;
63784;SDS011;49927;48.146;11.420;2022-09-01T00:38:36;49.72;;;29.75;;
63784;SDS011;49927;48.146;11.420;2022-09-01T00:41:02;48.65;;;28.15;;
63784;SDS011;49927;48.146;11.420;2022-09-01T00:43:35;53.55;;;30.77;;
63784;SDS011;49927;48.146;11.420;2022-09-01T00:46:03;54.55;;;30.70;;
63784;SDS011;49927;48.146;11.420;2022-09-01T00:48:29;43.65;;;28.15;;
63784;SDS011;49927;48.146;11.420;2022-09-01T00:50:55;46.35;;;29.52;;
63784;SDS011;49927;48.146;11.420;2022-09-01T00:53:20;50.92;;;29.35;;
63784;SDS011;49927;48.146;11.420;2022-09-01T00:55:46;48.47;;;29.88;;
63784;SDS011;49927;48.146;11.420;2022-09-01T00:58:12;48.85;;;29.10;;
63784;SDS011;49927;48.146;11.420;2022-09-01T01:00:38;50.25;;;31.15;;
63784;SDS011;49927;48.146;11.420;2022-09-01T01:03:05;46.13;;;30.05;;
63784;SDS011;49927;48.146;11.420;2022-09-01T01:05:32;48.90;;;30.45;;
63784;SDS011;49927;48.146;11.420;2022-09-01T01:07:59;48.35;;;29.00;;
63784;SDS011;49927;48.146;11.420;2022-09-01T01:10:26;46.75;;;28.38;;
63784;SDS011;49927;48.146;11.420;2022-09-01T01:12:55;48.30;;;29.83;;
63784;SDS011;49927;48.146;11.420;2022-09-01T01:15:20;45.65;;;29.23;;
63784;SDS011;49927;48.146;11.420;2022-09-01T01:17:46;47.92;;;29.83;;
63784;SDS011;49927;48.146;11.420;2022-09-01T01:20:13;47.15;;;29.52;;
63784;SDS011;49927;48.146;11.420;2022-09-01T01:22:43;48.40;;;30.25;;
63784;SDS011;49927;48.146;11.420;2022-09-01T01:25:10;48.47;;;30.45;;
63784;SDS011;49927;48.146;11.420;2022-09-01T01:27:36;47.55;;;27.65;;
63784;SDS011;49927;48.146;11.420;2022-09-01T01:30:03;54.95;;;30.38;;
63784;SDS011;49927;48.146;11.420;2022-09-01T01:32:30;49.40;;;29.15;;
63784;SDS011;49927;48.146;11.420;2022-09-01T01:34:55;47.08;;;28.38;;
63784;SDS011;49927;48.146;11.420;2022-09-01T01:37:21;48.95;;;29.50;;
63784;SDS011;49927;48.146;11.420;2022-09-01T01:39:46;48.72;;;29.88;;
63784;SDS011;49927;48.146;11.420;2022-09-01T01:42:13;49.00;;;28.63;;
63784;SDS011;49927;48.146;11.420;2022-09-01T01:44:39;46.30;;;29.92;;
63784;SDS011;49927;48.146;11.420;2022-09-01T01:47:05;54.20;;;31.25;;
63784;SDS011;49927;48.146;11.420;2022-09-01T01:49:33;45.85;;;27.80;;
63784;SDS011;49927;48.146;11.420;2022-09-01T01:51:58;49.20;;;30.42;;
63784;SDS011;49927;48.146;11.420;2022-09-01T01:54:24;46.03;;;28.13;;
63784;SDS011;49927;48.146;11.420;2022-09-01T01:56:50;53.88;;;30.88;;
63784;SDS011;49927;48.146;11.420;2022-09-01T01:59:17;50.53;;;30.90;;
63784;SDS011;49927;48.146;11.420;2022-09-01T02:01:43;48.67;;;29.80;;
63784;SDS011;49927;48.146;11.420;2022-09-01T02:04:09;50.58;;;30.20;;
63784;SDS011;49927;48.146;11.420;2022-09-01T02:06:34;47.60;;;29.92;;
63784;SDS011;49927;48.146;11.420;2022-09-01T02:09:00;51.75;;;30.25;;
63784;SDS011;49927;48.146;11.420;2022-09-01T02:11:26;47.90;;;30.17;;
63784;SDS011;49927;48.146;11.420;2022-09-01T02:13:53;52.45;;;30.38;;
63784;SDS011;49927;48.146;11.420;2022-09-01T02:16:20;56.45;;;31.92;;
63784;SDS011;49927;48.146;11.420;2022-09-01T02:18:46;46.78;;;28.85;;
63784;SDS011;49927;48.146;11.420;2022-09-01T02:21:11;45.88;;;28.20;;
63784;SDS011;49927;48.146;11.420;2022-09-01T02:23:37;52.30;;;30.08;;
63784;SDS011;49927;48.146;11.420;2022-09-01T02:26:03;49.40;;;29.33;;
63784;SDS011;49927;48.146;11.420;2022-09-01T02:28:30;52.17;;;30.85;;
63784;SDS011;49927;48.146;11.420;2022-09-01T02:30:57;54.95;;;29.08;;
63784;SDS011;49927;48.146;11.420;2022-09-01T02:33:24;46.17;;;29.23;;
63784;SDS011;49927;48.146;11.420;2022-09-01T02:35:51;47.33;;;30.35;;
63784;SDS011;49927;48.146;11.420;2022-09-01T02:38:18;53.65;;;30.33;;
63784;SDS011;49927;48.146;11.420;2022-09-01T02:40:44;50.70;;;30.10;;
63784;SDS011;49927;48.146;11.420;2022-09-01T02:43:10;48.33;;;29.40;;
63784;SDS011;49927;48.146;11.420;2022-09-01T02:45:36;50.08;;;30.33;;
63784;SDS011;49927;48.146;11.420;2022-09-01T02:48:03;44.60;;;28.00;;
63784;SDS011;49927;48.146;11.420;2022-09-01T02:50:30;47.42;;;29.00;;
63784;SDS011;49927;48.146;11.420;2022-09-01T02:52:55;42.90;;;27.55;;
63784;SDS011;49927;48.146;11.420;2022-09-01T02:55:21;42.17;;;27.60;;
63784;SDS011;49927;48.146;11.420;2022-09-01T02:57:47;44.20;;;27.17;;
63784;SDS011;49927;48.146;11.420;2022-09-01T03:00:13;41.33;;;26.73;;
63784;SDS011;49927;48.146;11.420;2022-09-01T03:02:40;39.58;;;26.85;;
63784;SDS011;49927;48.146;11.420;2022-09-01T03:05:06;39.75;;;27.10;;
63784;SDS011;49927;48.146;11.420;2022-09-01T03:07:33;40.05;;;25.27;;
63784;SDS011;49927;48.146;11.420;2022-09-01T03:09:58;38.85;;;24.58;;
63784;SDS011;49927;48.146;11.420;2022-09-01T03:12:24;36.15;;;24.00;;
63784;SDS011;49927;48.146;11.420;2022-09-01T03:14:49;41.90;;;27.45;;
63784;SDS011;49927;48.146;11.420;2022-09-01T03:17:15;41.17;;;27.10;;
63784;SDS011;49927;48.146;11.420;2022-09-01T03:19:40;41.58;;;26.08;;
63784;SDS011;49927;48.146;11.420;2022-09-01T03:22:06;43.50;;;27.02;;
63784;SDS011;49927;48.146;11.420;2022-09-01T03:24:33;43.13;;;25.98;;
63784;SDS011;49927;48.146;11.420;2022-09-01T03:26:58;40.17;;;26.15;;
63784;SDS011;49927;48.146;11.420;2022-09-01T03:29:24;48.85;;;29.25;;
63784;SDS011;49927;48.146;11.420;2022-09-01T03:31:49;43.80;;;27.85;;
63784;SDS011;49927;48.146;11.420;2022-09-01T03:34:15;45.45;;;28.48;;
63784;SDS011;49927;48.146;11.420;2022-09-01T03:36:40;45.58;;;27.50;;
63784;SDS011;49927;48.146;11.420;2022-09-01T03:39:06;43.47;;;27.10;;
63784;SDS011;49927;48.146;11.420;2022-09-01T03:41:33;46.90;;;28.33;;
63784;SDS011;49927;48.146;11.420;2022-09-01T03:43:58;42.75;;;28.15;;
63784;SDS011;49927;48.146;11.420;2022-09-01T03:46:24;45.22;;;27.48;;
63784;SDS011;49927;48.146;11.420;2022-09-01T03:48:51;47.38;;;28.42;;
63784;SDS011;49927;48.146;11.420;2022-09-01T03:51:19;42.55;;;26.73;;
63784;SDS011;49927;48.146;11.420;2022-09-01T03:53:45;44.72;;;27.73;;
63784;SDS011;49927;48.146;11.420;2022-09-01T03:56:10;46.13;;;28.27;;
63784;SDS011;49927;48.146;11.420;2022-09-01T03:58:37;43.35;;;26.70;;
63784;SDS011;49927;48.146;11.420;2022-09-01T04:01:03;44.65;;;28.02;;
63784;SDS011;49927;48.146;11.420;2022-09-01T04:03:29;46.35;;;28.35;;
63784;SDS011;49927;48.146;11.420;2022-09-01T04:05:57;49.50;;;27.80;;
63784;SDS011;49927;48.146;11.420;2022-09-01T04:08:23;43.67;;;26.98;;
63784;SDS011;49927;48.146;11.420;2022-09-01T04:10:51;41.35;;;26.98;;
63784;SDS011;49927;48.146;11.420;2022-09-01T04:13:18;51.35;;;28.23;;
63784;SDS011;49927;48.146;11.420;2022-09-01T04:15:46;41.58;;;26.38;;
63784;SDS011;49927;48.146;11.420;2022-09-01T04:18:12;40.67;;;27.73;;
63784;SDS011;49927;48.146;11.420;2022-09-01T04:20:39;40.13;;;26.25;;
63784;SDS011;49927;48.146;11.420;2022-09-01T04:23:05;43.67;;;26.50;;
63784;SDS011;49927;48.146;11.420;2022-09-01T04:25:30;42.05;;;26.33;;
63784;SDS011;49927;48.146;11.420;2022-09-01T04:27:56;37.42;;;25.00;;
63784;SDS011;49927;48.146;11.420;2022-09-01T04:30:22;43.28;;;26.90;;
63784;SDS011;49927;48.146;11.420;2022-09-01T04:32:49;45.13;;;26.83;;
63784;SDS011;49927;48.146;11.420;2022-09-01T04:35:15;44.65;;;26.63;;
63784;SDS011;49927;48.146;11.420;2022-09-01T04:37:40;54.22;;;29.80;;
63784;SDS011;49927;48.146;11.420;2022-09-01T04:40:06;60.75;;;32.58;;
63784;SDS011;49927;48.146;11.420;2022-09-01T04:42:32;55.08;;;30.67;;
63784;SDS011;49927;48.146;11.420;2022-09-01T04:44:58;53.65;;;31.77;;
63784;SDS011;49927;48.146;11.420;2022-09-01T04:47:24;51.88;;;31.52;;
63784;SDS011;49927;48.146;11.420;2022-09-01T04:49:51;50.30;;;30.35;;
63784;SDS011;49927;48.146;11.420;2022-09-01T04:52:18;49.35;;;29.85;;
63784;SDS011;49927;48.146;11.420;2022-09-01T04:54:44;47.45;;;29.70;;
63784;SDS011;49927;48.146;11.420;2022-09-01T04:57:09;42.00;;;27.42;;
63784;SDS011;49927;48.146;11.420;2022-09-01T04:59:35;46.95;;;28.70;;
63784;SDS011;49927;48.146;11.420;2022-09-01T05:02:00;44.67;;;27.63;;
63784;SDS011;49927;48.146;11.420;2022-09-01T05:04:26;47.05;;;29.38;;
63784;SDS011;49927;48.146;11.420;2022-09-01T05:06:56;45.72;;;27.48;;
63784;SDS011;49927;48.146;11.420;2022-09-01T05:09:22;44.25;;;29.33;;
63784;SDS011;49927;48.146;11.420;2022-09-01T05:11:48;43.45;;;25.90;;
63784;SDS011;49927;48.146;11.420;2022-09-01T05:14:13;41.80;;;26.92;;
63784;SDS011;49927;48.146;11.420;2022-09-01T05:16:39;42.47;;;27.70;;
63784;SDS011;49927;48.146;11.420;2022-09-01T05:19:05;44.60;;;27.13;;
63784;SDS011;49927;48.146;11.420;2022-09-01T05:21:31;39.10;;;26.58;;
63784;SDS011;49927;48.146;11.420;2022-09-01T05:23:59;44.30;;;28.02;;
63784;SDS011;49927;48.146;11.420;2022-09-01T05:26:25;47.83;;;28.35;;
63784;SDS011;49927;48.146;11.420;2022-09-01T05:28:53;43.67;;;27.92;;
63784;SDS011;49927;48.146;11.420;2022-09-01T05:31:21;41.15;;;26.58;;
63784;SDS011;49927;48.146;11.420;2022-09-01T05:33:48;52.83;;;27.05;;
63784;SDS011;49927;48.146;11.420;2022-09-01T05:36:14;42.35;;;27.52;;
63784;SDS011;49927;48.146;11.420;2022-09-01T05:38:41;42.10;;;27.23;;
63784;SDS011;49927;48.146;11.420;2022-09-01T05:41:08;43.97;;;27.67;;
63784;SDS011;49927;48.146;11.420;2022-09-01T05:43:35;37.97;;;25.90;;
63784;SDS011;49927;48.146;11.420;2022-09-01T05:46:05;41.35;;;26.92;;
63784;SDS011;49927;48.146;11.420;2022-09-01T05:48:30;36.88;;;24.98;;
63784;SDS011;49927;48.146;11.420;2022-09-01T05:50:56;37.45;;;24.90;;
63784;SDS011;49927;48.146;11.420;2022-09-01T05:53:22;37.95;;;25.10;;
63784;SDS011;49927;48.146;11.420;2022-09-01T05:55:48;35.70;;;25.63;;
63784;SDS011;49927;48.146;11.420;2022-09-01T05:58:15;40.63;;;25.98;;
63784;SDS011;49927;48.146;11.420;2022-09-01T06:00:40;35.80;;;25.27;;
63784;SDS011;49927;48.146;11.420;2022-09-01T06:03:06;36.97;;;24.48;;
63784;SDS011;49927;48.146;11.420;2022-09-01T06:05:33;32.15;;;21.80;;
63784;SDS011;49927;48.146;11.420;2022-09-01T06:07:58;31.27;;;20.83;;
63784;SDS011;49927;48.146;11.420;2022-09-01T06:10:24;26.65;;;18.45;;
63784;SDS011;49927;48.146;11.420;2022-09-01T06:12:49;26.20;;;18.42;;
63784;SDS011;49927;48.146;11.420;2022-09-01T06:15:17;25.30;;;17.83;;
63784;SDS011;49927;48.146;11.420;2022-09-01T06:17:42;25.60;;;18.98;;
63784;SDS011;49927;48.146;11.420;2022-09-01T06:20:08;25.13;;;17.63;;
63784;SDS011;49927;48.146;11.420;2022-09-01T06:22:34;24.63;;;18.45;;
63784;SDS011;49927;48.146;11.420;2022-09-01T06:24:59;27.42;;;18.13;;
63784;SDS011;49927;48.146;11.420;2022-09-01T06:27:25;24.98;;;17.10;;
63784;SDS011;49927;48.146;11.420;2022-09-01T06:29:50;24.10;;;17.80;;
63784;SDS011;49927;48.146;11.420;2022-09-01T06:32:17;25.60;;;17.33;;
63784;SDS011;49927;48.146;11.420;2022-09-01T06:34:43;27.30;;;17.15;;
63784;SDS011;49927;48.146;11.420;2022-09-01T06:37:08;24.00;;;16.85;;
63784;SDS011;49927;48.146;11.420;2022-09-01T06:39:34;25.45;;;16.55;;
63784;SDS011;49927;48.146;11.420;2022-09-01T06:42:00;29.85;;;17.10;;
63784;SDS011;49927;48.146;11.420;2022-09-01T06:44:25;21.77;;;15.00;;
63784;SDS011;49927;48.146;11.420;2022-09-01T06:46:51;23.15;;;15.73;;
63784;SDS011;49927;48.146;11.420;2022-09-01T06:49:18;23.63;;;16.30;;
63784;SDS011;49927;48.146;11.420;2022-09-01T06:51:44;24.95;;;16.80;;
63784;SDS011;49927;48.146;11.420;2022-09-01T06:54:09;26.42;;;16.33;;
63784;SDS011;49927;48.146;11.420;2022-09-01T06:56:35;20.60;;;14.13;;
63784;SDS011;49927;48.146;11.420;2022-09-01T06:59:00;22.55;;;16.15;;
63784;SDS011;49927;48.146;11.420;2022-09-01T07:01:26;22.98;;;14.85;;
63784;SDS011;49927;48.146;11.420;2022-09-01T07:03:53;18.95;;;12.93;;
63784;SDS011;49927;48.146;11.420;2022-09-01T07:06:21;19.15;;;13.23;;
63784;SDS011;49927;48.146;11.420;2022-09-01T07:08:47;19.13;;;13.60;;
63784;SDS011;49927;48.146;11.420;2022-09-01T07:11:15;19.92;;;14.48;;
63784;SDS011;49927;48.146;11.420;2022-09-01T07:13:42;23.35;;;13.82;;
63784;SDS011;49927;48.146;11.420;2022-09-01T07:16:07;19.08;;;13.55;;
63784;SDS011;49927;48.146;11.420;2022-09-01T07:18:33;18.80;;;12.60;;
63784;SDS011;49927;48.146;11.420;2022-09-01T07:20:58;18.10;;;11.98;;
63784;SDS011;49927;48.146;11.420;2022-09-01T07:23:26;18.52;;;12.75;;
63784;SDS011;49927;48.146;11.420;2022-09-01T07:25:51;13.32;;;11.30;;
63784;SDS011;49927;48.146;11.420;2022-09-01T07:28:17;14.52;;;11.55;;
63784;SDS011;49927;48.146;11.420;2022-09-01T07:30:43;16.27;;;12.52;;
63784;SDS011;49927;48.146;11.420;2022-09-01T07:33:11;16.17;;;12.05;;
63784;SDS011;49927;48.146;11.420;2022-09-01T07:35:37;14.27;;;10.85;;
63784;SDS011;49927;48.146;11.420;2022-09-01T07:38:03;14.20;;;10.88;;
63784;SDS011;49927;48.146;11.420;2022-09-01T07:40:30;16.15;;;11.85;;
63784;SDS011;49927;48.146;11.420;2022-09-01T07:42:55;17.67;;;12.05;;
63784;SDS011;49927;48.146;11.420;2022-09-01T07:45:22;16.27;;;11.88;;
63784;SDS011;49927;48.146;11.420;2022-09-01T07:47:47;15.25;;;12.35;;
63784;SDS011;49927;48.146;11.420;2022-09-01T07:50:13;17.30;;;12.15;;
63784;SDS011;49927;48.146;11.420;2022-09-01T07:52:38;18.33;;;12.52;;
63784;SDS011;49927;48.146;11.420;2022-09-01T07:55:04;15.60;;;11.23;;
63784;SDS011;49927;48.146;11.420;2022-09-01T07:57:32;14.93;;;12.00;;
63784;SDS011;49927;48.146;11.420;2022-09-01T07:59:57;13.90;;;11.80;;
63784;SDS011;49927;48.146;11.420;2022-09-01T08:02:23;14.27;;;11.55;;
63784;SDS011;49927;48.146;11.420;2022-09-01T08:04:48;18.02;;;12.00;;
63784;SDS011;49927;48.146;11.420;2022-09-01T08:07:14;12.07;;;10.48;;
63784;SDS011;49927;48.146;11.420;2022-09-01T08:09:39;13.63;;;10.55;;
63784;SDS011;49927;48.146;11.420;2022-09-01T08:12:06;15.23;;;10.25;;
63784;SDS011;49927;48.146;11.420;2022-09-01T08:14:33;12.02;;;9.38;;
63784;SDS011;49927;48.146;11.420;2022-09-01T08:20:02;11.18;;;8.95;;
63784;SDS011;49927;48.146;11.420;2022-09-01T08:22:28;12.00;;;9.00;;
63784;SDS011;49927;48.146;11.420;2022-09-01T08:24:53;10.05;;;8.85;;
63784;SDS011;49927;48.146;11.420;2022-09-01T08:27:19;12.25;;;9.57;;
63784;SDS011;49927;48.146;11.420;2022-09-01T08:29:46;13.00;;;9.98;;
63784;SDS011;49927;48.146;11.420;2022-09-01T08:32:11;13.38;;;9.57;;
63784;SDS011;49927;48.146;11.420;2022-09-01T08:34:37;11.77;;;9.35;;
63784;SDS011;49927;48.146;11.420;2022-09-01T08:37:03;14.23;;;9.10;;
63784;SDS011;49927;48.146;11.420;2022-09-01T08:39:28;10.82;;;9.63;;
63784;SDS011;49927;48.146;11.420;2022-09-01T08:41:55;10.55;;;9.20;;
63784;SDS011;49927;48.146;11.420;2022-09-01T08:44:26;11.20;;;8.23;;
63784;SDS011;49927;48.146;11.420;2022-09-01T08:46:59;9.73;;;8.23;;
63784;SDS011;49927;48.146;11.420;2022-09-01T08:49:26;10.20;;;9.20;;
63784;SDS011;49927;48.146;11.420;2022-09-01T08:51:53;10.43;;;8.98;;
63784;SDS011;49927;48.146;11.420;2022-09-01T08:54:23;12.35;;;8.68;;
63784;SDS011;49927;48.146;11.420;2022-09-01T08:56:50;10.77;;;9.07;;
63784;SDS011;49927;48.146;11.420;2022-09-01T08:59:18;9.68;;;8.23;;
63784;SDS011;49927;48.146;11.420;2022-09-01T09:01:46;10.25;;;8.43;;
63784;SDS011;49927;48.146;11.420;2022-09-01T09:04:19;11.65;;;8.60;;
63784;SDS011;49927;48.146;11.420;2022-09-01T09:06:52;11.85;;;9.60;;
63784;SDS011;49927;48.146;11.420;2022-09-01T09:09:21;12.43;;;9.82;;
63784;SDS011;49927;48.146;11.420;2022-09-01T09:17:39;10.27;;;8.20;;
63784;SDS011;49927;48.146;11.420;2022-09-01T09:20:10;9.18;;;7.72;;
63784;SDS011;49927;48.146;11.420;2022-09-01T09:22:36;9.32;;;8.25;;
63784;SDS011;49927;48.146;11.420;2022-09-01T09:25:03;10.63;;;8.82;;
63784;SDS011;49927;48.146;11.420;2022-09-01T09:27:32;9.13;;;7.80;;
63784;SDS011;49927;48.146;11.420;2022-09-01T09:29:59;8.25;;;7.28;;
63784;SDS011;49927;48.146;11.420;2022-09-01T09:32:40;8.65;;;7.47;;
63784;SDS011;49927;48.146;11.420;2022-09-01T09:35:17;9.80;;;7.88;;
63784;SDS011;49927;48.146;11.420;2022-09-01T09:37:45;7.70;;;6.90;;
63784;SDS011;49927;48.146;11.420;2022-09-01T09:40:13;8.23;;;7.30;;
63784;SDS011;49927;48.146;11.420;2022-09-01T09:42:40;10.52;;;8.30;;
63784;SDS011;49927;48.146;11.420;2022-09-01T09:45:13;11.52;;;8.43;;
63784;SDS011;49927;48.146;11.420;2022-09-01T09:47:46;8.52;;;7.63;;
63784;SDS011;49927;48.146;11.420;2022-09-01T09:50:18;11.00;;;7.60;;
63784;SDS011;49927;48.146;11.420;2022-09-01T09:52:49;9.95;;;7.60;;
63784;SDS011;49927;48.146;11.420;2022-09-01T09:55:20;9.95;;;8.50;;
63784;SDS011;49927;48.146;11.420;2022-09-01T09:57:51;14.20;;;8.88;;
63784;SDS011;49927;48.146;11.420;2022-09-01T10:00:19;10.07;;;8.50;;
63784;SDS011;49927;48.146;11.420;2022-09-01T10:02:49;8.75;;;7.32;;
63784;SDS011;49927;48.146;11.420;2022-09-01T10:05:25;8.77;;;6.85;;
63784;SDS011;49927;48.146;11.420;2022-09-01T10:07:54;10.90;;;7.18;;
63784;SDS011;49927;48.146;11.420;2022-09-01T10:10:28;10.23;;;8.13;;
63784;SDS011;49927;48.146;11.420;2022-09-01T10:12:55;8.20;;;6.88;;
63784;SDS011;49927;48.146;11.420;2022-09-01T10:15:22;11.35;;;8.27;;
63784;SDS011;49927;48.146;11.420;2022-09-01T10:17:50;12.02;;;8.52;;
63784;SDS011;49927;48.146;11.420;2022-09-01T10:20:17;12.00;;;9.32;;
63784;SDS011;49927;48.146;11.420;2022-09-01T10:22:46;12.57;;;9.60;;
63784;SDS011;49927;48.146;11.420;2022-09-01T10:25:12;15.05;;;9.60;;
63784;SDS011;49927;48.146;11.420;2022-09-01T10:27:42;10.45;;;9.27;;
63784;SDS011;49927;48.146;11.420;2022-09-01T10:30:10;15.55;;;9.05;;
63784;SDS011;49927;48.146;11.420;2022-09-01T10:32:38;10.50;;;8.43;;
63784;SDS011;49927;48.146;11.420;2022-09-01T10:35:06;10.02;;;8.07;;
63784;SDS011;49927;48.146;11.420;2022-09-01T10:37:32;11.25;;;8.13;;
63784;SDS011;49927;48.146;11.420;2022-09-01T10:40:14;10.40;;;8.05;;
63784;SDS011;49927;48.146;11.420;2022-09-01T10:42:41;10.65;;;7.20;;
63784;SDS011;49927;48.146;11.420;2022-09-01T10:45:15;7.93;;;6.53;;
63784;SDS011;49927;48.146;11.420;2022-09-01T10:47:42;6.72;;;5.75;;
63784;SDS011;49927;48.146;11.420;2022-09-01T10:50:22;6.82;;;5.40;;
63784;SDS011;49927;48.146;11.420;2022-09-01T10:52:56;6.95;;;5.55;;
63784;SDS011;49927;48.146;11.420;2022-09-01T10:55:25;6.93;;;6.13;;
63784;SDS011;49927;48.146;11.420;2022-09-01T10:57:57;7.60;;;5.15;;
63784;SDS011;49927;48.146;11.420;2022-09-01T11:00:43;6.25;;;5.03;;
63784;SDS011;49927;48.146;11.420;2022-09-01T11:09:19;5.18;;;4.65;;
63784;SDS011;49927;48.146;11.420;2022-09-01T11:11:50;5.80;;;4.18;;
63784;SDS011;49927;48.146;11.420;2022-09-01T11:14:25;4.97;;;3.80;;
63784;SDS011;49927;48.146;11.420;2022-09-01T11:22:09;4.82;;;3.55;;
63784;SDS011;49927;48.146;11.420;2022-09-01T11:24:46;4.15;;;3.17;;
63784;SDS011;49927;48.146;11.420;2022-09-01T11:30:22;7.20;;;4.18;;
63784;SDS011;49927;48.146;11.420;2022-09-01T11:32:51;3.88;;;3.58;;
63784;SDS011;49927;48.146;11.420;2022-09-01T11:35:23;3.97;;;3.15;;
63784;SDS011;49927;48.146;11.420;2022-09-01T11:37:51;3.35;;;2.95;;
63784;SDS011;49927;48.146;11.420;2022-09-01T11:40:20;3.65;;;3.35;;
63784;SDS011;49927;48.146;11.420;2022-09-01T11:42:49;3.40;;;3.10;;
63784;SDS011;49927;48.146;11.420;2022-09-01T11:45:16;4.50;;;3.40;;
63784;SDS011;49927;48.146;11.420;2022-09-01T11:47:43;3.45;;;3.15;;
63784;SDS011;49927;48.146;11.420;2022-09-01T11:50:16;3.72;;;3.22;;
63784;SDS011;49927;48.146;11.420;2022-09-01T11:52:51;3.08;;;2.78;;
63784;SDS011;49927;48.146;11.420;2022-09-01T11:55:27;3.58;;;3.28;;
63784;SDS011;49927;48.146;11.420;2022-09-01T11:57:55;3.53;;;3.23;;
63784;SDS011;49927;48.146;11.420;2022-09-01T12:00:24;3.10;;;2.90;;
63784;SDS011;49927;48.146;11.420;2022-09-01T12:02:51;4.40;;;2.97;;
63784;SDS011;49927;48.146;11.420;2022-09-01T12:05:27;4.53;;;3.45;;
63784;SDS011;49927;48.146;11.420;2022-09-01T12:07:54;4.28;;;2.80;;
63784;SDS011;49927;48.146;11.420;2022-09-01T12:10:21;3.28;;;2.97;;
63784;SDS011;49927;48.146;11.420;2022-09-01T12:12:59;3.65;;;2.75;;
63784;SDS011;49927;48.146;11.420;2022-09-01T12:15:26;4.28;;;2.58;;
63784;SDS011;49927;48.146;11.420;2022-09-01T12:17:52;3.08;;;2.70;;
63784;SDS011;49927;48.146;11.420;2022-09-01T12:20:19;4.43;;;2.70;;
63784;SDS011;49927;48.146;11.420;2022-09-01T12:22:49;2.92;;;2.53;;
63784;SDS011;49927;48.146;11.420;2022-09-01T12:25:17;3.00;;;2.50;;
63784;SDS011;49927;48.146;11.420;2022-09-01T12:27:44;5.55;;;3.00;;
63784;SDS011;49927;48.146;11.420;2022-09-01T12:30:12;2.53;;;2.33;;
63784;SDS011;49927;48.146;11.420;2022-09-01T12:32:38;2.90;;;2.60;;
63784;SDS011;49927;48.146;11.420;2022-09-01T12:35:04;4.78;;;2.60;;
63784;SDS011;49927;48.146;11.420;2022-09-01T12:37:39;3.47;;;3.13;;
63784;SDS011;49927;48.146;11.420;2022-09-01T12:40:04;3.75;;;2.78;;
63784;SDS011;49927;48.146;11.420;2022-09-01T12:42:31;4.43;;;2.65;;
63784;SDS011;49927;48.146;11.420;2022-09-01T12:44:58;4.13;;;2.65;;
63784;SDS011;49927;48.146;11.420;2022-09-01T12:47:45;3.22;;;2.80;;
63784;SDS011;49927;48.146;11.420;2022-09-01T12:53:12;5.18;;;3.45;;
63784;SDS011;49927;48.146;11.420;2022-09-01T12:55:40;7.07;;;3.63;;
63784;SDS011;49927;48.146;11.420;2022-09-01T12:58:20;3.45;;;2.90;;
63784;SDS011;49927;48.146;11.420;2022-09-01T13:00:53;5.00;;;3.60;;
63784;SDS011;49927;48.146;11.420;2022-09-01T13:03:21;3.83;;;2.75;;
63784;SDS011;49927;48.146;11.420;2022-09-01T13:05:48;5.32;;;2.95;;
63784;SDS011;49927;48.146;11.420;2022-09-01T13:08:16;3.83;;;3.42;;
63784;SDS011;49927;48.146;11.420;2022-09-01T13:10:43;4.65;;;3.28;;
63784;SDS011;49927;48.146;11.420;2022-09-01T13:13:10;3.83;;;3.15;;
63784;SDS011;49927;48.146;11.420;2022-09-01T13:15:37;4.32;;;3.38;;
63784;SDS011;49927;48.146;11.420;2022-09-01T13:18:04;3.13;;;2.83;;
63784;SDS011;49927;48.146;11.420;2022-09-01T13:20:31;3.05;;;2.83;;
63784;SDS011;49927;48.146;11.420;2022-09-01T13:22:56;4.05;;;2.63;;
63784;SDS011;49927;48.146;11.420;2022-09-01T13:25:22;5.32;;;2.78;;
63784;SDS011;49927;48.146;11.420;2022-09-01T13:27:48;3.03;;;2.60;;
63784;SDS011;49927;48.146;11.420;2022-09-01T13:30:15;3.30;;;2.60;;
63784;SDS011;49927;48.146;11.420;2022-09-01T13:32:41;2.92;;;2.72;;
63784;SDS011;49927;48.146;11.420;2022-09-01T13:35:07;2.50;;;2.30;;
63784;SDS011;49927;48.146;11.420;2022-09-01T13:37:34;3.67;;;2.63;;
63784;SDS011;49927;48.146;11.420;2022-09-01T13:40:00;4.53;;;3.13;;
63784;SDS011;49927;48.146;11.420;2022-09-01T13:42:26;3.35;;;2.55;;
63784;SDS011;49927;48.146;11.420;2022-09-01T13:44:51;3.75;;;3.30;;
63784;SDS011;49927;48.146;11.420;2022-09-01T13:47:17;5.13;;;3.10;;
63784;SDS011;49927;48.146;11.420;2022-09-01T13:49:43;3.28;;;3.00;;
63784;SDS011;49927;48.146;11.420;2022-09-01T13:52:08;6.80;;;3.67;;
63784;SDS011;49927;48.146;11.420;2022-09-01T13:54:35;3.83;;;2.92;;
63784;SDS011;49927;48.146;11.420;2022-09-01T13:57:01;3.83;;;3.03;;
63784;SDS011;49927;48.146;11.420;2022-09-01T13:59:26;4.93;;;3.25;;
63784;SDS011;49927;48.146;11.420;2022-09-01T14:01:52;4.38;;;2.90;;
63784;SDS011;49927;48.146;11.420;2022-09-01T14:04:17;4.28;;;3.15;;
63784;SDS011;49927;48.146;11.420;2022-09-01T14:06:43;3.72;;;3.25;;
63784;SDS011;49927;48.146;11.420;2022-09-01T14:09:09;4.57;;;2.70;;
63784;SDS011;49927;48.146;11.420;2022-09-01T14:11:35;4.72;;;2.70;;
63784;SDS011;49927;48.146;11.420;2022-09-01T14:14:01;3.72;;;3.17;;
63784;SDS011;49927;48.146;11.420;2022-09-01T14:16:27;3.25;;;2.95;;
63784;SDS011;49927;48.146;11.420;2022-09-01T14:18:52;4.25;;;2.58;;
63784;SDS011;49927;48.146;11.420;2022-09-01T14:21:18;2.90;;;2.60;;
63784;SDS011;49927;48.146;11.420;2022-09-01T14:23:43;3.33;;;3.03;;
63784;SDS011;49927;48.146;11.420;2022-09-01T14:26:13;3.67;;;2.83;;
63784;SDS011;49927;48.146;11.420;2022-09-01T14:28:44;2.97;;;2.67;;
63784;SDS011;49927;48.146;11.420;2022-09-01T14:31:10;7.07;;;4.50;;
63784;SDS011;49927;48.146;11.420;2022-09-01T14:33:36;2.47;;;2.20;;
63784;SDS011;49927;48.146;11.420;2022-09-01T14:36:03;6.28;;;2.83;;
63784;SDS011;49927;48.146;11.420;2022-09-01T14:38:29;3.17;;;2.50;;
63784;SDS011;49927;48.146;11.420;2022-09-01T14:40:55;2.95;;;2.65;;
63784;SDS011;49927;48.146;11.420;2022-09-01T14:43:21;2.90;;;2.60;;
63784;SDS011;49927;48.146;11.420;2022-09-01T14:45:48;3.03;;;2.40;;